sensor_id;sensor_type;location;lat;lon;timestamp;P1;durP1;ratioP1;P2;durP2;ratioP2
47089;SDS011;32840;52.516;13.294;2023-06-22T00:02:40;15.50;;;13.93;;
47089;SDS011;32840;52.516;13.294;2023-06-22T00:05:25;15.35;;;13.85;;
47089;SDS011;32840;52.516;13.294;2023-06-22T00:08:10;14.77;;;13.27;;
47089;SDS011;32840;52.516;13.294;2023-06-22T00:10:55;15.90;;;14.18;;
47089;SDS011;32840;52.516;13.294;2023-06-22T00:13:41;15.23;;;13.68;;
47089;SDS011;32840;52.516;13.294;2023-06-22T00:16:26;15.30;;;13.77;;
47089;SDS011;32840;52.516;13.294;2023-06-22T00:19:11;15.25;;;12.38;;
47089;SDS011;32840;52.516;13.294;2023-06-22T00:21:55;14.30;;;12.90;;
47089;SDS011;32840;52.516;13.294;2023-06-22T00:24:44;20.63;;;13.85;;
47089;SDS011;32840;52.516;13.294;2023-06-22T00:27:29;14.30;;;12.60;;
47089;SDS011;32840;52.516;13.294;2023-06-22T00:30:15;14.63;;;13.07;;
47089;SDS011;32840;52.516;13.294;2023-06-22T00:33:00;17.40;;;14.07;;
47089;SDS011;32840;52.516;13.294;2023-06-22T00:35:45;15.55;;;13.93;;
47089;SDS011;32840;52.516;13.294;2023-06-22T00:38:30;16.33;;;13.27;;
47089;SDS011;32840;52.516;13.294;2023-06-22T00:41:16;15.88;;;13.63;;
47089;SDS011;32840;52.516;13.294;2023-06-22T00:44:01;14.77;;;13.20;;
47089;SDS011;32840;52.516;13.294;2023-06-22T00:46:46;14.20;;;12.70;;
47089;SDS011;32840;52.516;13.294;2023-06-22T00:49:31;13.43;;;12.10;;
47089;SDS011;32840;52.516;13.294;2023-06-22T00:52:16;13.73;;;12.32;;
47089;SDS011;32840;52.516;13.294;2023-06-22T00:55:04;13.82;;;12.07;;
47089;SDS011;32840;52.516;13.294;2023-06-22T00:57:51;14.93;;;11.48;;
47089;SDS011;32840;52.516;13.294;2023-06-22T01:00:40;15.95;;;11.68;;
47089;SDS011;32840;52.516;13.294;2023-06-22T01:03:25;12.15;;;10.95;;
47089;SDS011;32840;52.516;13.294;2023-06-22T01:06:13;15.10;;;11.63;;
47089;SDS011;32840;52.516;13.294;2023-06-22T01:09:02;13.93;;;11.40;;
47089;SDS011;32840;52.516;13.294;2023-06-22T01:12:00;13.43;;;11.45;;
47089;SDS011;32840;52.516;13.294;2023-06-22T01:14:53;16.55;;;11.40;;
47089;SDS011;32840;52.516;13.294;2023-06-22T01:17:43;12.75;;;11.32;;
47089;SDS011;32840;52.516;13.294;2023-06-22T01:20:29;15.43;;;11.70;;
47089;SDS011;32840;52.516;13.294;2023-06-22T01:23:21;13.90;;;11.52;;
47089;SDS011;32840;52.516;13.294;2023-06-22T01:29:04;13.35;;;11.27;;
47089;SDS011;32840;52.516;13.294;2023-06-22T01:31:50;13.95;;;12.45;;
47089;SDS011;32840;52.516;13.294;2023-06-22T01:34:35;12.52;;;10.98;;
47089;SDS011;32840;52.516;13.294;2023-06-22T01:37:27;13.68;;;10.70;;
47089;SDS011;32840;52.516;13.294;2023-06-22T01:40:13;12.90;;;11.48;;
47089;SDS011;32840;52.516;13.294;2023-06-22T01:43:00;12.40;;;11.07;;
47089;SDS011;32840;52.516;13.294;2023-06-22T01:45:46;12.63;;;11.32;;
47089;SDS011;32840;52.516;13.294;2023-06-22T01:48:31;13.05;;;11.65;;
47089;SDS011;32840;52.516;13.294;2023-06-22T01:51:16;12.52;;;11.27;;
47089;SDS011;32840;52.516;13.294;2023-06-22T01:54:01;13.32;;;11.93;;
47089;SDS011;32840;52.516;13.294;2023-06-22T01:56:46;12.95;;;11.45;;
47089;SDS011;32840;52.516;13.294;2023-06-22T01:59:36;14.98;;;12.07;;
47089;SDS011;32840;52.516;13.294;2023-06-22T02:02:27;13.10;;;11.70;;
47089;SDS011;32840;52.516;13.294;2023-06-22T02:05:17;13.85;;;11.63;;
47089;SDS011;32840;52.516;13.294;2023-06-22T02:08:11;17.77;;;12.18;;
47089;SDS011;32840;52.516;13.294;2023-06-22T02:11:00;14.57;;;12.77;;
47089;SDS011;32840;52.516;13.294;2023-06-22T02:13:47;14.02;;;11.90;;
47089;SDS011;32840;52.516;13.294;2023-06-22T02:16:35;15.18;;;11.60;;
47089;SDS011;32840;52.516;13.294;2023-06-22T02:19:22;14.80;;;12.98;;
47089;SDS011;32840;52.516;13.294;2023-06-22T02:22:08;15.15;;;13.57;;
47089;SDS011;32840;52.516;13.294;2023-06-22T02:24:53;14.68;;;12.18;;
47089;SDS011;32840;52.516;13.294;2023-06-22T02:27:38;14.25;;;12.85;;
47089;SDS011;32840;52.516;13.294;2023-06-22T02:30:25;14.15;;;12.25;;
47089;SDS011;32840;52.516;13.294;2023-06-22T02:33:10;15.48;;;13.25;;
47089;SDS011;32840;52.516;13.294;2023-06-22T02:35:56;16.25;;;14.13;;
47089;SDS011;32840;52.516;13.294;2023-06-22T02:38:42;14.25;;;12.52;;
47089;SDS011;32840;52.516;13.294;2023-06-22T02:41:32;14.52;;;13.02;;
47089;SDS011;32840;52.516;13.294;2023-06-22T02:44:17;17.80;;;15.32;;
47089;SDS011;32840;52.516;13.294;2023-06-22T02:47:02;16.10;;;13.82;;
47089;SDS011;32840;52.516;13.294;2023-06-22T02:49:46;17.95;;;15.27;;
47089;SDS011;32840;52.516;13.294;2023-06-22T02:52:31;15.95;;;14.30;;
47089;SDS011;32840;52.516;13.294;2023-06-22T02:55:17;17.02;;;14.43;;
47089;SDS011;32840;52.516;13.294;2023-06-22T02:58:01;16.63;;;13.85;;
47089;SDS011;32840;52.516;13.294;2023-06-22T03:00:50;15.73;;;13.43;;
47089;SDS011;32840;52.516;13.294;2023-06-22T03:03:39;15.63;;;13.70;;
47089;SDS011;32840;52.516;13.294;2023-06-22T03:06:24;15.13;;;13.63;;
47089;SDS011;32840;52.516;13.294;2023-06-22T03:09:12;16.75;;;14.55;;
47089;SDS011;32840;52.516;13.294;2023-06-22T03:11:57;15.57;;;13.43;;
47089;SDS011;32840;52.516;13.294;2023-06-22T03:14:42;16.38;;;14.68;;
47089;SDS011;32840;52.516;13.294;2023-06-22T03:17:27;15.88;;;13.73;;
47089;SDS011;32840;52.516;13.294;2023-06-22T03:20:12;17.00;;;14.55;;
47089;SDS011;32840;52.516;13.294;2023-06-22T03:22:56;18.88;;;14.27;;
47089;SDS011;32840;52.516;13.294;2023-06-22T03:25:42;17.60;;;14.40;;
47089;SDS011;32840;52.516;13.294;2023-06-22T03:28:28;15.48;;;13.88;;
47089;SDS011;32840;52.516;13.294;2023-06-22T03:31:13;17.17;;;13.82;;
47089;SDS011;32840;52.516;13.294;2023-06-22T03:33:59;18.15;;;14.55;;
47089;SDS011;32840;52.516;13.294;2023-06-22T03:36:44;15.93;;;14.10;;
47089;SDS011;32840;52.516;13.294;2023-06-22T03:39:29;15.20;;;12.70;;
47089;SDS011;32840;52.516;13.294;2023-06-22T03:42:17;17.17;;;12.98;;
47089;SDS011;32840;52.516;13.294;2023-06-22T03:45:02;15.70;;;13.23;;
47089;SDS011;32840;52.516;13.294;2023-06-22T03:47:48;13.88;;;11.30;;
47089;SDS011;32840;52.516;13.294;2023-06-22T03:50:33;13.27;;;10.77;;
47089;SDS011;32840;52.516;13.294;2023-06-22T03:53:18;15.60;;;10.35;;
47089;SDS011;32840;52.516;13.294;2023-06-22T03:56:04;13.45;;;11.43;;
47089;SDS011;32840;52.516;13.294;2023-06-22T03:58:48;14.60;;;10.23;;
47089;SDS011;32840;52.516;13.294;2023-06-22T04:01:33;11.60;;;9.25;;
47089;SDS011;32840;52.516;13.294;2023-06-22T04:04:18;11.05;;;9.32;;
47089;SDS011;32840;52.516;13.294;2023-06-22T04:07:04;11.95;;;9.43;;
47089;SDS011;32840;52.516;13.294;2023-06-22T04:09:48;13.15;;;9.63;;
47089;SDS011;32840;52.516;13.294;2023-06-22T04:12:35;12.25;;;9.32;;
47089;SDS011;32840;52.516;13.294;2023-06-22T04:15:19;12.88;;;9.30;;
47089;SDS011;32840;52.516;13.294;2023-06-22T04:18:04;14.23;;;9.13;;
47089;SDS011;32840;52.516;13.294;2023-06-22T04:20:49;10.07;;;9.07;;
47089;SDS011;32840;52.516;13.294;2023-06-22T04:23:34;9.95;;;8.43;;
47089;SDS011;32840;52.516;13.294;2023-06-22T04:26:21;9.95;;;8.68;;
47089;SDS011;32840;52.516;13.294;2023-06-22T04:29:07;11.82;;;9.13;;
47089;SDS011;32840;52.516;13.294;2023-06-22T04:31:54;9.48;;;8.00;;
47089;SDS011;32840;52.516;13.294;2023-06-22T04:34:43;14.63;;;8.82;;
47089;SDS011;32840;52.516;13.294;2023-06-22T04:37:27;12.13;;;8.57;;
47089;SDS011;32840;52.516;13.294;2023-06-22T04:40:12;9.77;;;7.93;;
47089;SDS011;32840;52.516;13.294;2023-06-22T04:42:59;12.80;;;8.60;;
47089;SDS011;32840;52.516;13.294;2023-06-22T04:45:47;10.55;;;7.85;;
47089;SDS011;32840;52.516;13.294;2023-06-22T04:48:36;7.72;;;6.80;;
47089;SDS011;32840;52.516;13.294;2023-06-22T04:51:21;10.50;;;7.75;;
47089;SDS011;32840;52.516;13.294;2023-06-22T04:54:06;13.57;;;7.30;;
47089;SDS011;32840;52.516;13.294;2023-06-22T04:56:51;19.88;;;7.40;;
47089;SDS011;32840;52.516;13.294;2023-06-22T04:59:45;8.73;;;7.70;;
47089;SDS011;32840;52.516;13.294;2023-06-22T05:02:30;8.13;;;6.72;;
47089;SDS011;32840;52.516;13.294;2023-06-22T05:05:16;9.90;;;6.90;;
47089;SDS011;32840;52.516;13.294;2023-06-22T05:08:03;8.18;;;6.38;;
47089;SDS011;32840;52.516;13.294;2023-06-22T05:10:50;9.48;;;6.40;;
47089;SDS011;32840;52.516;13.294;2023-06-22T05:13:35;6.72;;;6.03;;
47089;SDS011;32840;52.516;13.294;2023-06-22T05:16:20;7.05;;;5.72;;
47089;SDS011;32840;52.516;13.294;2023-06-22T05:19:08;6.78;;;5.50;;
47089;SDS011;32840;52.516;13.294;2023-06-22T05:21:53;6.90;;;5.80;;
47089;SDS011;32840;52.516;13.294;2023-06-22T05:24:38;8.27;;;5.80;;
47089;SDS011;32840;52.516;13.294;2023-06-22T05:27:24;7.82;;;5.18;;
47089;SDS011;32840;52.516;13.294;2023-06-22T05:30:09;9.23;;;5.68;;
47089;SDS011;32840;52.516;13.294;2023-06-22T05:32:54;5.28;;;4.78;;
47089;SDS011;32840;52.516;13.294;2023-06-22T05:35:39;6.05;;;4.25;;
47089;SDS011;32840;52.516;13.294;2023-06-22T05:38:24;6.47;;;4.22;;
47089;SDS011;32840;52.516;13.294;2023-06-22T05:41:11;5.82;;;4.53;;
47089;SDS011;32840;52.516;13.294;2023-06-22T05:43:56;8.18;;;4.97;;
47089;SDS011;32840;52.516;13.294;2023-06-22T05:46:42;8.95;;;4.80;;
47089;SDS011;32840;52.516;13.294;2023-06-22T05:49:29;6.25;;;4.65;;
47089;SDS011;32840;52.516;13.294;2023-06-22T05:52:17;7.07;;;4.50;;
47089;SDS011;32840;52.516;13.294;2023-06-22T05:55:03;6.63;;;4.90;;
47089;SDS011;32840;52.516;13.294;2023-06-22T05:57:48;7.90;;;5.10;;
47089;SDS011;32840;52.516;13.294;2023-06-22T06:00:33;5.38;;;4.75;;
47089;SDS011;32840;52.516;13.294;2023-06-22T06:03:18;7.40;;;5.20;;
47089;SDS011;32840;52.516;13.294;2023-06-22T06:06:04;7.07;;;5.10;;
47089;SDS011;32840;52.516;13.294;2023-06-22T06:08:52;13.65;;;4.78;;
47089;SDS011;32840;52.516;13.294;2023-06-22T06:11:37;8.02;;;4.88;;
47089;SDS011;32840;52.516;13.294;2023-06-22T06:14:23;8.75;;;4.90;;
47089;SDS011;32840;52.516;13.294;2023-06-22T06:17:09;7.60;;;4.60;;
47089;SDS011;32840;52.516;13.294;2023-06-22T06:19:55;7.13;;;4.75;;
47089;SDS011;32840;52.516;13.294;2023-06-22T06:22:41;7.22;;;4.72;;
47089;SDS011;32840;52.516;13.294;2023-06-22T06:25:27;8.13;;;4.63;;
47089;SDS011;32840;52.516;13.294;2023-06-22T06:28:12;6.90;;;5.00;;
47089;SDS011;32840;52.516;13.294;2023-06-22T06:30:56;8.05;;;4.72;;
47089;SDS011;32840;52.516;13.294;2023-06-22T06:33:43;4.68;;;3.95;;
47089;SDS011;32840;52.516;13.294;2023-06-22T06:36:28;8.32;;;5.07;;
47089;SDS011;32840;52.516;13.294;2023-06-22T06:39:14;8.55;;;4.90;;
47089;SDS011;32840;52.516;13.294;2023-06-22T06:42:00;6.70;;;4.13;;
47089;SDS011;32840;52.516;13.294;2023-06-22T06:44:45;7.55;;;4.78;;
47089;SDS011;32840;52.516;13.294;2023-06-22T06:47:30;5.40;;;3.83;;
47089;SDS011;32840;52.516;13.294;2023-06-22T06:50:16;6.35;;;4.30;;
47089;SDS011;32840;52.516;13.294;2023-06-22T06:53:01;7.45;;;4.45;;
47089;SDS011;32840;52.516;13.294;2023-06-22T06:55:46;6.57;;;3.97;;
47089;SDS011;32840;52.516;13.294;2023-06-22T06:58:32;5.47;;;4.20;;
47089;SDS011;32840;52.516;13.294;2023-06-22T07:01:18;5.13;;;3.42;;
47089;SDS011;32840;52.516;13.294;2023-06-22T07:04:04;4.40;;;3.42;;
47089;SDS011;32840;52.516;13.294;2023-06-22T07:06:49;10.38;;;3.88;;
47089;SDS011;32840;52.516;13.294;2023-06-22T07:09:34;7.22;;;4.10;;
47089;SDS011;32840;52.516;13.294;2023-06-22T07:12:18;6.97;;;4.38;;
47089;SDS011;32840;52.516;13.294;2023-06-22T07:15:07;4.82;;;3.50;;
47089;SDS011;32840;52.516;13.294;2023-06-22T07:17:53;5.72;;;3.80;;
47089;SDS011;32840;52.516;13.294;2023-06-22T07:20:38;8.43;;;3.50;;
47089;SDS011;32840;52.516;13.294;2023-06-22T07:23:23;8.45;;;3.22;;
47089;SDS011;32840;52.516;13.294;2023-06-22T07:26:09;5.28;;;3.83;;
47089;SDS011;32840;52.516;13.294;2023-06-22T07:28:56;5.30;;;3.35;;
47089;SDS011;32840;52.516;13.294;2023-06-22T07:31:41;6.10;;;3.70;;
47089;SDS011;32840;52.516;13.294;2023-06-22T07:34:29;5.05;;;3.60;;
47089;SDS011;32840;52.516;13.294;2023-06-22T07:37:14;4.78;;;3.30;;
47089;SDS011;32840;52.516;13.294;2023-06-22T07:40:02;6.28;;;3.30;;
47089;SDS011;32840;52.516;13.294;2023-06-22T07:42:50;8.20;;;3.63;;
47089;SDS011;32840;52.516;13.294;2023-06-22T07:45:38;5.18;;;2.78;;
47089;SDS011;32840;52.516;13.294;2023-06-22T07:48:24;5.28;;;3.40;;
47089;SDS011;32840;52.516;13.294;2023-06-22T07:51:11;4.22;;;3.00;;
47089;SDS011;32840;52.516;13.294;2023-06-22T07:54:00;5.47;;;2.88;;
47089;SDS011;32840;52.516;13.294;2023-06-22T07:56:46;7.07;;;2.85;;
47089;SDS011;32840;52.516;13.294;2023-06-22T07:59:31;4.18;;;3.10;;
47089;SDS011;32840;52.516;13.294;2023-06-22T08:02:17;4.13;;;2.75;;
47089;SDS011;32840;52.516;13.294;2023-06-22T08:05:02;5.43;;;3.08;;
47089;SDS011;32840;52.516;13.294;2023-06-22T08:07:48;4.93;;;3.05;;
47089;SDS011;32840;52.516;13.294;2023-06-22T08:10:34;9.35;;;3.03;;
47089;SDS011;32840;52.516;13.294;2023-06-22T08:13:20;7.75;;;3.25;;
47089;SDS011;32840;52.516;13.294;2023-06-22T08:16:05;4.07;;;2.38;;
47089;SDS011;32840;52.516;13.294;2023-06-22T08:18:51;3.58;;;2.78;;
47089;SDS011;32840;52.516;13.294;2023-06-22T08:21:36;6.32;;;2.65;;
47089;SDS011;32840;52.516;13.294;2023-06-22T08:24:21;4.82;;;2.60;;
47089;SDS011;32840;52.516;13.294;2023-06-22T08:27:06;13.77;;;9.88;;
47089;SDS011;32840;52.516;13.294;2023-06-22T08:29:53;4.35;;;2.80;;
47089;SDS011;32840;52.516;13.294;2023-06-22T08:32:42;8.00;;;2.92;;
47089;SDS011;32840;52.516;13.294;2023-06-22T08:35:27;5.47;;;2.90;;
47089;SDS011;32840;52.516;13.294;2023-06-22T08:38:12;5.93;;;2.90;;
47089;SDS011;32840;52.516;13.294;2023-06-22T08:41:02;4.60;;;2.60;;
47089;SDS011;32840;52.516;13.294;2023-06-22T08:43:52;5.03;;;2.78;;
47089;SDS011;32840;52.516;13.294;2023-06-22T08:46:38;3.85;;;2.70;;
47089;SDS011;32840;52.516;13.294;2023-06-22T08:49:24;6.13;;;3.00;;
47089;SDS011;32840;52.516;13.294;2023-06-22T08:52:09;4.20;;;2.70;;
47089;SDS011;32840;52.516;13.294;2023-06-22T08:54:54;3.55;;;2.50;;
47089;SDS011;32840;52.516;13.294;2023-06-22T08:57:39;3.85;;;2.60;;
47089;SDS011;32840;52.516;13.294;2023-06-22T09:00:26;4.22;;;2.63;;
47089;SDS011;32840;52.516;13.294;2023-06-22T09:03:13;4.90;;;3.30;;
47089;SDS011;32840;52.516;13.294;2023-06-22T09:05:59;5.13;;;3.10;;
47089;SDS011;32840;52.516;13.294;2023-06-22T09:08:44;6.43;;;3.30;;
47089;SDS011;32840;52.516;13.294;2023-06-22T09:11:31;3.97;;;3.15;;
47089;SDS011;32840;52.516;13.294;2023-06-22T09:14:16;6.13;;;3.08;;
47089;SDS011;32840;52.516;13.294;2023-06-22T09:17:01;7.22;;;3.88;;
47089;SDS011;32840;52.516;13.294;2023-06-22T09:19:46;7.35;;;3.33;;
47089;SDS011;32840;52.516;13.294;2023-06-22T09:22:31;5.15;;;3.30;;
47089;SDS011;32840;52.516;13.294;2023-06-22T09:25:18;5.88;;;3.90;;
47089;SDS011;32840;52.516;13.294;2023-06-22T09:28:05;5.15;;;3.75;;
47089;SDS011;32840;52.516;13.294;2023-06-22T09:30:50;4.97;;;3.33;;
47089;SDS011;32840;52.516;13.294;2023-06-22T09:33:35;5.50;;;3.33;;
47089;SDS011;32840;52.516;13.294;2023-06-22T09:36:22;4.68;;;3.78;;
47089;SDS011;32840;52.516;13.294;2023-06-22T09:39:07;5.88;;;3.60;;
47089;SDS011;32840;52.516;13.294;2023-06-22T09:41:51;4.70;;;3.55;;
47089;SDS011;32840;52.516;13.294;2023-06-22T09:44:37;5.50;;;3.40;;
47089;SDS011;32840;52.516;13.294;2023-06-22T09:47:22;3.28;;;2.80;;
47089;SDS011;32840;52.516;13.294;2023-06-22T09:50:08;4.95;;;3.50;;
47089;SDS011;32840;52.516;13.294;2023-06-22T09:52:54;4.90;;;3.00;;
47089;SDS011;32840;52.516;13.294;2023-06-22T09:55:39;4.30;;;3.08;;
47089;SDS011;32840;52.516;13.294;2023-06-22T09:58:26;4.20;;;3.13;;
47089;SDS011;32840;52.516;13.294;2023-06-22T10:01:11;6.13;;;3.28;;
47089;SDS011;32840;52.516;13.294;2023-06-22T10:04:01;3.92;;;3.35;;
47089;SDS011;32840;52.516;13.294;2023-06-22T10:06:46;6.75;;;3.38;;
47089;SDS011;32840;52.516;13.294;2023-06-22T10:09:33;4.65;;;3.10;;
47089;SDS011;32840;52.516;13.294;2023-06-22T10:12:21;6.90;;;3.53;;
47089;SDS011;32840;52.516;13.294;2023-06-22T10:15:06;9.48;;;7.07;;
47089;SDS011;32840;52.516;13.294;2023-06-22T10:17:51;10.70;;;6.15;;
47089;SDS011;32840;52.516;13.294;2023-06-22T10:20:36;7.90;;;4.85;;
47089;SDS011;32840;52.516;13.294;2023-06-22T10:23:24;12.13;;;10.93;;
47089;SDS011;32840;52.516;13.294;2023-06-22T10:26:09;6.80;;;3.45;;
47089;SDS011;32840;52.516;13.294;2023-06-22T10:28:54;5.07;;;3.90;;
47089;SDS011;32840;52.516;13.294;2023-06-22T10:31:40;9.88;;;5.55;;
47089;SDS011;32840;52.516;13.294;2023-06-22T10:34:25;5.78;;;4.22;;
47089;SDS011;32840;52.516;13.294;2023-06-22T10:37:11;6.63;;;4.57;;
47089;SDS011;32840;52.516;13.294;2023-06-22T10:39:56;6.00;;;4.40;;
47089;SDS011;32840;52.516;13.294;2023-06-22T10:42:42;7.13;;;4.20;;
47089;SDS011;32840;52.516;13.294;2023-06-22T10:45:31;7.43;;;4.05;;
47089;SDS011;32840;52.516;13.294;2023-06-22T10:48:19;6.72;;;4.63;;
47089;SDS011;32840;52.516;13.294;2023-06-22T10:51:03;5.80;;;4.38;;
47089;SDS011;32840;52.516;13.294;2023-06-22T10:53:48;6.22;;;4.40;;
47089;SDS011;32840;52.516;13.294;2023-06-22T10:56:35;5.65;;;4.35;;
47089;SDS011;32840;52.516;13.294;2023-06-22T10:59:19;7.20;;;4.25;;
47089;SDS011;32840;52.516;13.294;2023-06-22T11:02:07;5.15;;;4.40;;
47089;SDS011;32840;52.516;13.294;2023-06-22T11:04:54;6.95;;;4.25;;
47089;SDS011;32840;52.516;13.294;2023-06-22T11:07:43;4.82;;;3.85;;
47089;SDS011;32840;52.516;13.294;2023-06-22T11:10:28;7.38;;;4.40;;
47089;SDS011;32840;52.516;13.294;2023-06-22T11:13:13;5.15;;;4.40;;
47089;SDS011;32840;52.516;13.294;2023-06-22T11:16:01;7.03;;;4.40;;
47089;SDS011;32840;52.516;13.294;2023-06-22T11:18:46;5.07;;;4.30;;
47089;SDS011;32840;52.516;13.294;2023-06-22T11:21:31;6.63;;;4.38;;
47089;SDS011;32840;52.516;13.294;2023-06-22T11:24:17;5.70;;;4.80;;
47089;SDS011;32840;52.516;13.294;2023-06-22T11:27:04;8.70;;;4.28;;
47089;SDS011;32840;52.516;13.294;2023-06-22T11:29:49;5.75;;;4.38;;
47089;SDS011;32840;52.516;13.294;2023-06-22T11:32:37;5.80;;;4.45;;
47089;SDS011;32840;52.516;13.294;2023-06-22T11:35:22;4.93;;;4.45;;
47089;SDS011;32840;52.516;13.294;2023-06-22T11:38:07;5.45;;;4.20;;
47089;SDS011;32840;52.516;13.294;2023-06-22T11:40:52;6.03;;;4.60;;
47089;SDS011;32840;52.516;13.294;2023-06-22T11:43:36;5.72;;;4.20;;
47089;SDS011;32840;52.516;13.294;2023-06-22T11:46:21;6.45;;;4.15;;
47089;SDS011;32840;52.516;13.294;2023-06-22T11:49:08;6.85;;;4.70;;
47089;SDS011;32840;52.516;13.294;2023-06-22T11:51:53;7.65;;;4.13;;
47089;SDS011;32840;52.516;13.294;2023-06-22T11:54:37;5.57;;;4.57;;
47089;SDS011;32840;52.516;13.294;2023-06-22T11:57:27;9.88;;;4.78;;
47089;SDS011;32840;52.516;13.294;2023-06-22T12:00:12;5.97;;;3.90;;
47089;SDS011;32840;52.516;13.294;2023-06-22T12:03:02;5.63;;;4.47;;
47089;SDS011;32840;52.516;13.294;2023-06-22T12:05:47;6.18;;;4.30;;
47089;SDS011;32840;52.516;13.294;2023-06-22T12:08:32;6.47;;;4.75;;
47089;SDS011;32840;52.516;13.294;2023-06-22T12:11:17;5.20;;;4.40;;
47089;SDS011;32840;52.516;13.294;2023-06-22T12:14:03;4.97;;;4.20;;
47089;SDS011;32840;52.516;13.294;2023-06-22T12:16:49;7.65;;;4.30;;
47089;SDS011;32840;52.516;13.294;2023-06-22T12:19:35;5.55;;;4.15;;
47089;SDS011;32840;52.516;13.294;2023-06-22T12:22:21;5.07;;;4.20;;
47089;SDS011;32840;52.516;13.294;2023-06-22T12:25:08;8.65;;;4.60;;
47089;SDS011;32840;52.516;13.294;2023-06-22T12:27:54;8.10;;;3.88;;
47089;SDS011;32840;52.516;13.294;2023-06-22T12:30:39;5.97;;;4.20;;
47089;SDS011;32840;52.516;13.294;2023-06-22T12:33:25;5.57;;;4.20;;
47089;SDS011;32840;52.516;13.294;2023-06-22T12:36:10;6.05;;;4.68;;
47089;SDS011;32840;52.516;13.294;2023-06-22T12:38:55;6.20;;;4.45;;
47089;SDS011;32840;52.516;13.294;2023-06-22T12:41:40;6.88;;;4.80;;
47089;SDS011;32840;52.516;13.294;2023-06-22T12:44:25;5.97;;;4.60;;
47089;SDS011;32840;52.516;13.294;2023-06-22T12:47:10;5.00;;;3.97;;
47089;SDS011;32840;52.516;13.294;2023-06-22T12:49:55;6.88;;;4.97;;
47089;SDS011;32840;52.516;13.294;2023-06-22T12:52:40;5.78;;;4.10;;
47089;SDS011;32840;52.516;13.294;2023-06-22T12:55:25;7.35;;;5.22;;
47089;SDS011;32840;52.516;13.294;2023-06-22T12:58:11;6.20;;;3.95;;
47089;SDS011;32840;52.516;13.294;2023-06-22T13:00:56;5.10;;;3.95;;
47089;SDS011;32840;52.516;13.294;2023-06-22T13:03:41;5.65;;;4.10;;
47089;SDS011;32840;52.516;13.294;2023-06-22T13:06:26;6.63;;;4.90;;
47089;SDS011;32840;52.516;13.294;2023-06-22T13:09:11;5.53;;;4.43;;
47089;SDS011;32840;52.516;13.294;2023-06-22T13:12:03;6.35;;;4.30;;
47089;SDS011;32840;52.516;13.294;2023-06-22T13:14:48;5.30;;;4.35;;
47089;SDS011;32840;52.516;13.294;2023-06-22T13:17:34;5.60;;;4.75;;
47089;SDS011;32840;52.516;13.294;2023-06-22T13:20:19;5.88;;;4.60;;
47089;SDS011;32840;52.516;13.294;2023-06-22T13:23:07;5.65;;;4.35;;
47089;SDS011;32840;52.516;13.294;2023-06-22T13:25:52;5.97;;;4.78;;
47089;SDS011;32840;52.516;13.294;2023-06-22T13:28:37;8.20;;;4.47;;
47089;SDS011;32840;52.516;13.294;2023-06-22T13:31:22;7.20;;;4.18;;
47089;SDS011;32840;52.516;13.294;2023-06-22T13:34:06;7.10;;;4.78;;
47089;SDS011;32840;52.516;13.294;2023-06-22T13:36:54;7.05;;;4.57;;
47089;SDS011;32840;52.516;13.294;2023-06-22T13:39:39;6.30;;;5.00;;
47089;SDS011;32840;52.516;13.294;2023-06-22T13:42:25;8.85;;;4.88;;
47089;SDS011;32840;52.516;13.294;2023-06-22T13:45:10;6.40;;;5.18;;
47089;SDS011;32840;52.516;13.294;2023-06-22T13:47:57;7.53;;;5.57;;
47089;SDS011;32840;52.516;13.294;2023-06-22T13:50:42;5.78;;;4.72;;
47089;SDS011;32840;52.516;13.294;2023-06-22T13:53:27;5.60;;;4.63;;
47089;SDS011;32840;52.516;13.294;2023-06-22T13:56:12;5.45;;;4.82;;
47089;SDS011;32840;52.516;13.294;2023-06-22T13:58:58;8.52;;;5.60;;
47089;SDS011;32840;52.516;13.294;2023-06-22T14:01:44;5.85;;;4.20;;
47089;SDS011;32840;52.516;13.294;2023-06-22T14:04:29;5.00;;;4.50;;
47089;SDS011;32840;52.516;13.294;2023-06-22T14:07:22;5.47;;;4.85;;
47089;SDS011;32840;52.516;13.294;2023-06-22T14:10:08;7.97;;;4.53;;
47089;SDS011;32840;52.516;13.294;2023-06-22T14:12:54;7.72;;;4.65;;
47089;SDS011;32840;52.516;13.294;2023-06-22T14:15:39;5.72;;;4.53;;
47089;SDS011;32840;52.516;13.294;2023-06-22T14:18:24;6.60;;;5.32;;
47089;SDS011;32840;52.516;13.294;2023-06-22T14:21:09;5.88;;;5.28;;
47089;SDS011;32840;52.516;13.294;2023-06-22T14:23:55;9.30;;;4.85;;
47089;SDS011;32840;52.516;13.294;2023-06-22T14:26:40;6.80;;;4.88;;
47089;SDS011;32840;52.516;13.294;2023-06-22T14:29:25;6.20;;;4.85;;
47089;SDS011;32840;52.516;13.294;2023-06-22T14:32:12;10.15;;;4.75;;
47089;SDS011;32840;52.516;13.294;2023-06-22T14:34:58;7.10;;;4.85;;
47089;SDS011;32840;52.516;13.294;2023-06-22T14:37:43;8.30;;;4.90;;
47089;SDS011;32840;52.516;13.294;2023-06-22T14:40:29;5.13;;;4.63;;
47089;SDS011;32840;52.516;13.294;2023-06-22T14:43:14;5.13;;;4.60;;
47089;SDS011;32840;52.516;13.294;2023-06-22T14:45:59;6.05;;;5.22;;
47089;SDS011;32840;52.516;13.294;2023-06-22T14:48:44;6.30;;;5.07;;
47089;SDS011;32840;52.516;13.294;2023-06-22T14:51:30;5.68;;;5.07;;
47089;SDS011;32840;52.516;13.294;2023-06-22T14:54:14;5.38;;;4.72;;
47089;SDS011;32840;52.516;13.294;2023-06-22T14:57:00;5.78;;;4.90;;
47089;SDS011;32840;52.516;13.294;2023-06-22T14:59:45;6.10;;;4.97;;
47089;SDS011;32840;52.516;13.294;2023-06-22T15:02:33;6.32;;;4.70;;
47089;SDS011;32840;52.516;13.294;2023-06-22T15:05:19;8.57;;;4.90;;
47089;SDS011;32840;52.516;13.294;2023-06-22T15:08:03;5.20;;;4.70;;
47089;SDS011;32840;52.516;13.294;2023-06-22T15:10:52;7.05;;;4.40;;
47089;SDS011;32840;52.516;13.294;2023-06-22T15:13:40;7.00;;;5.40;;
47089;SDS011;32840;52.516;13.294;2023-06-22T15:16:26;5.32;;;4.80;;
47089;SDS011;32840;52.516;13.294;2023-06-22T15:19:11;7.13;;;5.20;;
47089;SDS011;32840;52.516;13.294;2023-06-22T15:21:56;5.53;;;4.63;;
47089;SDS011;32840;52.516;13.294;2023-06-22T15:24:41;5.43;;;4.82;;
47089;SDS011;32840;52.516;13.294;2023-06-22T15:27:26;5.65;;;5.15;;
47089;SDS011;32840;52.516;13.294;2023-06-22T15:30:11;6.25;;;4.70;;
47089;SDS011;32840;52.516;13.294;2023-06-22T15:32:57;5.90;;;4.85;;
47089;SDS011;32840;52.516;13.294;2023-06-22T15:35:41;6.03;;;4.80;;
47089;SDS011;32840;52.516;13.294;2023-06-22T15:38:28;5.13;;;4.57;;
47089;SDS011;32840;52.516;13.294;2023-06-22T15:41:13;6.35;;;5.43;;
47089;SDS011;32840;52.516;13.294;2023-06-22T15:43:58;6.68;;;4.60;;
47089;SDS011;32840;52.516;13.294;2023-06-22T15:46:46;5.43;;;4.90;;
47089;SDS011;32840;52.516;13.294;2023-06-22T15:49:31;5.35;;;4.82;;
47089;SDS011;32840;52.516;13.294;2023-06-22T15:52:17;5.50;;;4.90;;
47089;SDS011;32840;52.516;13.294;2023-06-22T15:55:03;6.75;;;5.20;;
47089;SDS011;32840;52.516;13.294;2023-06-22T15:57:48;6.05;;;5.05;;
47089;SDS011;32840;52.516;13.294;2023-06-22T16:00:34;7.25;;;4.68;;
47089;SDS011;32840;52.516;13.294;2023-06-22T16:03:19;6.38;;;4.93;;
47089;SDS011;32840;52.516;13.294;2023-06-22T16:06:04;5.90;;;4.82;;
47089;SDS011;32840;52.516;13.294;2023-06-22T16:08:49;5.72;;;4.75;;
47089;SDS011;32840;52.516;13.294;2023-06-22T16:11:33;7.13;;;5.82;;
47089;SDS011;32840;52.516;13.294;2023-06-22T16:14:21;5.68;;;4.85;;
47089;SDS011;32840;52.516;13.294;2023-06-22T16:17:06;6.45;;;5.07;;
47089;SDS011;32840;52.516;13.294;2023-06-22T16:19:51;5.65;;;4.85;;
47089;SDS011;32840;52.516;13.294;2023-06-22T16:22:39;6.25;;;5.50;;